Time;durP1;ratioP1;P1;durP2;ratioP2;P2;SDS_P1;SDS_P2;PMS_P1;PMS_P2;Temp;Humidity;BMP_temperature;BMP_pressure;BME280_temperature;BME280_humidity;BME280_pressure;Samples;Min_cycle;Max_cycle;Signal;HPM_P1;HPM_P2
2022/04/20 00:00:27;;;;;;;19.50;13.60;;;;;;;5.83;59.68;99933.35;130490;1268;108411;-79
2022/04/20 00:03:41;;;;;;;17.60;12.90;;;;;;;5.82;59.61;99933.79;130505;1268;108771;-79
2022/04/20 00:06:46;;;;;;;19.70;13.50;;;;;;;5.81;59.93;99931.09;130500;1268;108841;-78
2022/04/20 00:09:52;;;;;;;18.50;13.20;;;;;;;5.80;59.86;99933.80;130300;1268;108701;-79
2022/04/20 00:12:58;;;;;;;19.20;13.30;;;;;;;5.82;60.10;99934.51;130331;1268;108656;-78
2022/04/20 00:16:03;;;;;;;19.40;13.50;;;;;;;5.84;60.00;99932.58;130263;1268;108769;-78
2022/04/20 00:19:09;;;;;;;20.70;14.00;;;;;;;5.86;60.06;99932.98;130336;1268;108785;-78
2022/04/20 00:22:14;;;;;;;19.30;12.60;;;;;;;5.83;60.17;99933.36;130467;1268;108762;-78
2022/04/20 00:25:20;;;;;;;18.70;13.00;;;;;;;5.87;60.09;99931.12;129983;1268;432846;-76
2022/04/20 00:28:25;;;;;;;20.70;13.00;;;;;;;5.90;60.18;99928.52;130312;1268;108746;-77
2022/04/20 00:31:31;;;;;;;18.20;13.00;;;;;;;5.98;60.30;99926.29;130276;1268;107046;-75
2022/04/20 00:34:36;;;;;;;20.20;13.40;;;;;;;6.09;60.14;99920.45;130288;1268;106995;-75
2022/04/20 00:37:43;;;;;;;18.30;13.70;;;;;;;6.16;60.20;99914.75;130258;1268;109016;-75
2022/04/20 00:40:49;;;;;;;18.80;13.10;;;;;;;6.19;60.52;99919.75;130317;1268;108729;-75
2022/04/20 00:43:55;;;;;;;19.60;13.50;;;;;;;6.23;60.34;99919.02;130256;1268;108707;-76
2022/04/20 00:47:02;;;;;;;17.80;13.00;;;;;;;6.21;60.58;99917.96;130269;1268;108500;-76
2022/04/20 00:50:09;;;;;;;17.40;13.30;;;;;;;6.14;61.33;99925.98;130302;1268;109180;-77
2022/04/20 00:53:15;;;;;;;19.40;13.80;;;;;;;6.04;61.39;99919.41;130268;1268;108668;-77
2022/04/20 00:56:20;;;;;;;16.00;12.40;;;;;;;5.99;61.57;99915.15;130245;1268;108740;-77
2022/04/20 00:59:29;;;;;;;15.80;12.50;;;;;;;5.98;61.27;99912.92;130233;1268;108682;-79
2022/04/20 01:02:35;;;;;;;20.60;12.40;;;;;;;5.99;61.68;99909.47;130332;1268;108769;-79
2022/04/20 01:05:40;;;;;;;17.60;12.10;;;;;;;5.93;62.24;99903.39;130312;1268;108626;-78
2022/04/20 01:08:52;;;;;;;17.20;12.00;;;;;;;5.86;61.73;99902.04;130324;1268;108900;-78
2022/04/20 01:12:02;;;;;;;14.70;10.90;;;;;;;5.83;62.03;99892.02;130294;1268;108760;-77
2022/04/20 01:15:31;;;;;;;14.10;10.20;;;;;;;5.84;62.39;99888.13;130353;1268;108693;-77
2022/04/20 01:18:53;;;;;;;14.90;10.50;;;;;;;5.86;62.28;99882.51;130229;1268;108985;-77
2022/04/20 01:22:09;;;;;;;12.30;9.60;;;;;;;5.92;63.28;99872.23;130332;1268;108700;-77
2022/04/20 01:25:28;;;;;;;;;;;;;;;5.99;62.69;99869.91;130341;1268;107688;-77
2022/04/20 01:28:56;;;;;;;11.50;8.60;;;;;;;6.07;63.06;99863.77;130312;1268;111751;-77
2022/04/20 01:32:13;;;;;;;10.50;8.10;;;;;;;6.07;63.03;99859.85;130263;1268;108670;-79
2022/04/20 01:35:44;;;;;;;10.90;7.90;;;;;;;6.06;62.93;99852.56;130245;1268;108735;-76
2022/04/20 01:38:49;;;;;;;11.00;7.90;;;;;;;6.03;63.74;99855.27;130244;1268;108746;-77
2022/04/20 01:41:55;;;;;;;10.60;8.30;;;;;;;5.94;64.24;99854.23;130267;1268;108689;-77
2022/04/20 01:45:01;;;;;;;10.50;7.90;;;;;;;5.86;63.94;99851.21;130249;1268;108887;-77
2022/04/20 01:48:19;;;;;;;10.00;6.90;;;;;;;5.82;64.60;99854.73;130283;1268;108759;-77
2022/04/20 01:52:04;;;;;;;11.00;7.20;;;;;;;5.82;64.17;99849.12;129647;1274;108759;-78
2022/04/20 01:55:10;;;;;;;9.00;7.20;;;;;;;5.87;64.78;99846.58;129632;1274;108827;-78
2022/04/20 01:58:42;;;;;;;10.40;7.40;;;;;;;5.94;64.33;99845.09;130140;1268;108702;-78
2022/04/20 02:02:35;;;;;;;9.90;7.50;;;;;;;5.96;65.00;99838.04;129802;1268;108771;-76
2022/04/20 02:06:14;;;;;;;9.90;7.90;;;;;;;5.97;64.32;99833.16;130350;1268;108826;-77
2022/04/20 02:09:38;;;;;;;10.90;8.10;;;;;;;6.01;64.49;99822.05;130309;1268;109047;-74
2022/04/20 02:12:49;;;;;;;12.00;9.00;;;;;;;5.99;64.99;99818.20;130214;1269;108824;-74
2022/04/20 02:16:24;;;;;;;12.30;9.10;;;;;;;5.94;64.76;99811.36;130211;1268;108908;-73
2022/04/20 02:19:48;;;;;;;11.50;8.30;;;;;;;5.93;65.91;99809.33;130270;1268;108888;-74
2022/04/20 02:22:59;;;;;;;12.50;8.60;;;;;;;5.85;66.03;99805.95;130276;1268;108700;-78
2022/04/20 02:26:05;;;;;;;12.70;9.30;;;;;;;5.83;65.89;99800.85;130292;1268;108993;-77
2022/04/20 02:29:10;;;;;;;12.10;9.30;;;;;;;5.86;65.86;99798.46;130221;1268;108928;-79
2022/04/20 02:32:16;;;;;;;13.10;8.50;;;;;;;5.88;67.17;99800.40;130269;1268;108964;-77
2022/04/20 02:35:21;;;;;;;12.80;9.40;;;;;;;5.81;68.66;99798.16;130267;1268;108755;-76
2022/04/20 02:38:29;;;;;;;13.10;9.50;;;;;;;5.77;67.39;99796.20;130274;1268;108948;-77
2022/04/20 02:41:38;;;;;;;13.00;9.40;;;;;;;5.77;67.54;99787.56;130311;1268;107655;-77
2022/04/20 02:44:43;;;;;;;11.40;8.50;;;;;;;5.73;68.04;99789.86;130301;1268;107723;-76
2022/04/20 02:47:49;;;;;;;12.30;8.10;;;;;;;5.70;67.37;99780.75;130252;1268;108709;-76
2022/04/20 02:50:55;;;;;;;11.70;8.10;;;;;;;5.73;66.96;99778.42;130283;1268;108598;-75
2022/04/20 02:54:01;;;;;;;83.10;50.50;;;;;;;5.84;67.46;99772.31;130343;1268;108708;-77
2022/04/20 02:57:08;;;;;;;17.80;12.50;;;;;;;5.90;67.65;99771.25;130265;1268;107681;-77
2022/04/20 03:00:16;;;;;;;19.70;12.80;;;;;;;5.88;67.89;99773.34;130354;1268;108760;-77
2022/04/20 03:03:29;;;;;;;14.80;10.50;;;;;;;5.87;68.06;99771.86;130310;1268;108686;-77
2022/04/20 03:06:39;;;;;;;15.10;9.40;;;;;;;5.83;69.40;99773.80;130320;1268;108907;-77
2022/04/20 03:09:50;;;;;;;13.90;10.30;;;;;;;5.75;68.94;99768.19;130304;1268;108870;-79
2022/04/20 03:12:56;;;;;;;12.10;9.10;;;;;;;5.78;69.27;99761.71;130268;1268;108722;-77
2022/04/20 03:16:01;;;;;;;14.00;11.10;;;;;;;5.81;69.37;99752.08;130314;1268;108684;-77
2022/04/20 03:19:07;;;;;;;15.60;11.60;;;;;;;5.82;71.45;99751.65;130237;1268;109132;-82
2022/04/20 03:22:13;;;;;;;15.10;10.70;;;;;;;5.80;71.06;99755.04;130373;1269;109148;-79
2022/04/20 03:25:18;;;;;;;13.70;10.00;;;;;;;5.76;71.27;99757.52;130420;1268;108720;-81
2022/04/20 03:28:45;;;;;;;11.20;8.90;;;;;;;5.72;70.17;99758.17;130428;1268;108784;-78
2022/04/20 03:31:50;;;;;;;12.80;10.30;;;;;;;5.76;71.92;99757.33;130249;1270;108769;-77
2022/04/20 03:34:57;;;;;;;14.10;10.40;;;;;;;5.77;71.57;99748.99;130272;1268;108908;-76
2022/04/20 03:38:03;;;;;;;13.50;11.00;;;;;;;5.79;72.00;99744.85;130299;1268;108643;-80
2022/04/20 03:41:09;;;;;;;13.50;10.30;;;;;;;5.78;73.67;99743.23;130293;1268;107445;-76
2022/04/20 03:44:14;;;;;;;11.70;9.30;;;;;;;5.73;72.46;99734.11;130289;1268;108895;-76
2022/04/20 03:47:20;;;;;;;13.40;10.50;;;;;;;5.78;72.70;99731.74;130337;1268;108634;-78
2022/04/20 03:50:25;;;;;;;22.30;17.40;;;;;;;5.76;73.56;99732.58;130333;1268;108000;-79
2022/04/20 03:53:31;;;;;;;23.30;14.80;;;;;;;5.72;74.11;99725.02;130272;1268;108818;-77
2022/04/20 03:59:58;;;;;;;49.40;27.50;;;;;;;5.70;74.54;99721.24;130419;1268;108683;-81
2022/04/20 04:03:04;;;;;;;14.40;11.50;;;;;;;5.73;72.94;99719.25;130316;1268;108621;-75
2022/04/20 04:06:12;;;;;;;13.10;10.00;;;;;;;5.81;72.68;99720.11;130319;1268;107410;-77
2022/04/20 04:09:18;;;;;;;12.10;10.20;;;;;;;5.85;74.17;99723.48;130260;1269;108759;-78
2022/04/20 04:12:25;;;;;;;16.00;12.80;;;;;;;5.85;74.13;99723.86;130336;1268;108564;-77
2022/04/20 04:15:34;;;;;;;24.60;18.00;;;;;;;5.83;73.45;99723.17;130247;1269;107718;-78
2022/04/20 04:18:40;;;;;;;16.90;12.40;;;;;;;5.80;74.83;99721.84;130247;1268;108941;-78
2022/04/20 04:21:48;;;;;;;74.80;34.30;;;;;;;5.78;74.27;99714.78;130342;1268;108797;-78
2022/04/20 04:24:56;;;;;;;21.90;15.40;;;;;;;5.87;73.88;99715.86;130389;1268;108964;-79
2022/04/20 04:28:03;;;;;;;24.70;18.20;;;;;;;5.90;74.97;99712.45;130278;1269;108692;-77
2022/04/20 04:31:08;;;;;;;56.90;37.90;;;;;;;5.84;76.54;99716.70;130236;1268;108836;-78
2022/04/20 04:34:14;;;;;;;13.10;9.90;;;;;;;5.83;75.61;99712.08;130443;1266;108679;-79
2022/04/20 04:37:20;;;;;;;14.00;10.60;;;;;;;5.86;75.33;99705.05;130335;1267;108646;-78
2022/04/20 04:40:31;;;;;;;11.90;9.40;;;;;;;5.89;76.10;99703.88;130377;1268;108776;-77
2022/04/20 04:43:37;;;;;;;9.80;8.20;;;;;;;5.90;75.87;99708.06;130495;1267;109026;-77
2022/04/20 04:50:09;;;;;;;8.10;6.70;;;;;;;5.80;76.67;99703.50;130486;1267;107661;-79
2022/04/20 04:53:15;;;;;;;9.00;7.70;;;;;;;5.83;75.81;99700.05;130328;1268;108952;-78
2022/04/20 04:56:20;;;;;;;8.70;7.10;;;;;;;5.89;76.16;99700.20;130441;1267;107622;-77
2022/04/20 04:59:26;;;;;;;9.10;7.50;;;;;;;5.92;77.03;99697.86;130474;1267;108778;-76
2022/04/20 05:02:34;;;;;;;8.20;6.60;;;;;;;5.87;77.60;99695.23;130472;1267;108745;-76
2022/04/20 05:05:41;;;;;;;7.70;6.60;;;;;;;5.87;77.31;99693.51;130439;1267;108875;-77
2022/04/20 05:08:47;;;;;;;9.40;7.40;;;;;;;5.87;77.68;99691.54;130373;1268;108642;-77
2022/04/20 05:11:53;;;;;;;9.00;7.80;;;;;;;5.87;78.43;99686.82;130503;1267;108912;-78
2022/04/20 05:15:00;;;;;;;12.40;9.30;;;;;;;5.89;79.09;99685.94;130456;1267;108704;-77
2022/04/20 05:18:06;;;;;;;9.20;7.20;;;;;;;5.86;78.91;99681.39;130439;1267;108808;-77
2022/04/20 05:21:11;;;;;;;7.10;6.20;;;;;;;5.86;78.40;99674.86;130385;1268;108696;-78
2022/04/20 05:24:17;;;;;;;9.40;7.40;;;;;;;5.92;79.17;99676.15;130345;1267;108801;-74
2022/04/20 05:27:22;;;;;;;9.50;7.70;;;;;;;5.94;77.91;99674.86;130315;1268;108755;-75
2022/04/20 05:30:33;;;;;;;11.80;8.50;;;;;;;5.95;79.34;99676.56;130420;1267;108877;-76
2022/04/20 05:33:39;;;;;;;194.00;92.50;;;;;;;5.92;79.48;99672.44;130302;1267;108905;-76
2022/04/20 05:43:34;;;;;;;8.70;7.80;;;;;;;5.94;79.53;99666.96;130547;1267;107414;-81
2022/04/20 05:46:41;;;;;;;11.10;8.20;;;;;;;5.99;79.14;99664.96;130506;1267;108822;-81
2022/04/20 05:49:50;;;;;;;8.50;6.30;;;;;;;5.96;79.95;99670.30;130672;1267;108824;-82
2022/04/20 05:52:56;;;;;;;7.70;5.60;;;;;;;5.96;79.05;99668.38;130601;1267;108933;-79
2022/04/20 05:56:03;;;;;;;8.40;5.80;;;;;;;6.00;80.20;99665.19;130363;1267;109197;-79
2022/04/20 05:59:09;;;;;;;7.30;5.90;;;;;;;6.04;79.23;99659.75;130529;1267;108758;-79
2022/04/20 06:02:17;;;;;;;8.40;6.40;;;;;;;6.07;79.22;99657.33;130383;1268;108850;-80
2022/04/20 06:05:23;;;;;;;6.40;4.90;;;;;;;6.08;78.48;99658.47;130406;1267;108774;-79
2022/04/20 06:08:42;;;;;;;6.00;4.60;;;;;;;6.07;78.20;99660.83;130646;1267;108671;-79
2022/04/20 06:12:02;;;;;;;6.10;4.30;;;;;;;6.09;77.59;99657.88;130614;1267;108642;-80
2022/04/20 06:15:27;;;;;;;6.80;5.30;;;;;;;6.09;78.91;99656.27;130620;1268;108951;-80
2022/04/20 06:18:46;;;;;;;12.80;7.30;;;;;;;6.09;79.42;99657.69;130574;1267;109050;-80
2022/04/20 06:22:01;;;;;;;6.30;3.90;;;;;;;6.03;79.96;99655.23;130614;1267;108682;-80
2022/04/20 06:25:30;;;;;;;4.50;2.80;;;;;;;5.93;79.31;99654.14;130578;1267;108955;-79
2022/04/20 06:28:55;;;;;;;2.80;2.20;;;;;;;5.84;79.02;99652.46;130616;1268;108669;-79
2022/04/20 06:32:28;;;;;;;3.70;2.60;;;;;;;5.85;78.21;99648.98;130279;1268;108740;-78
2022/04/20 06:36:09;;;;;;;8.30;6.90;;;;;;;5.89;78.52;99648.30;129717;1271;107764;-77
2022/04/20 06:39:54;;;;;;;114.50;67.40;;;;;;;5.90;78.32;99643.13;129475;1276;108681;-79
2022/04/20 06:43:18;;;;;;;26.20;17.50;;;;;;;5.93;78.61;99640.00;129753;1274;108736;-80
2022/04/20 06:46:56;;;;;;;14.60;8.70;;;;;;;5.95;78.50;99640.08;130526;1268;108652;-78
2022/04/20 06:50:18;;;;;;;18.50;12.50;;;;;;;5.97;78.52;99637.42;130563;1268;108797;-82
2022/04/20 07:00:30;;;;;;;27.80;21.20;;;;;;;6.23;78.34;99635.23;131175;1268;108858;-83
2022/04/20 07:04:08;;;;;;;26.40;16.70;;;;;;;6.21;78.24;99636.44;130730;1268;107601;-77
2022/04/20 07:07:49;;;;;;;11.90;8.50;;;;;;;6.16;77.99;99631.95;130599;1267;108852;-78
2022/04/20 07:11:09;;;;;;;22.20;13.80;;;;;;;6.17;78.79;99622.52;130847;1267;107901;-79
2022/04/20 07:14:15;;;;;;;19.20;13.60;;;;;;;6.17;78.05;99619.13;130666;1268;108966;-77
2022/04/20 07:17:21;;;;;;;23.30;17.20;;;;;;;6.24;78.30;99624.20;130701;1267;108795;-76
2022/04/20 07:20:34;;;;;;;33.60;20.60;;;;;;;6.21;79.81;99623.36;130557;1267;108687;-75
2022/04/20 07:23:51;;;;;;;15.40;10.70;;;;;;;6.15;79.85;99618.27;130539;1267;108779;-81
2022/04/20 07:27:16;;;;;;;13.00;7.80;;;;;;;6.11;80.05;99614.60;130581;1267;107717;-86
2022/04/20 07:30:45;;;;;;;24.10;16.00;;;;;;;6.09;80.42;99619.33;131036;1267;109036;-94
2022/04/20 07:34:09;;;;;;;20.10;14.40;;;;;;;6.15;79.65;99612.27;131012;1267;108237;-87
2022/04/20 07:37:40;;;;;;;18.50;11.60;;;;;;;6.25;79.10;99609.95;130691;1267;108703;-94
2022/04/20 07:40:55;;;;;;;13.20;9.20;;;;;;;6.32;78.53;99604.58;130733;1268;107730;-79
2022/04/20 07:44:24;;;;;;;33.40;21.20;;;;;;;6.33;78.45;99602.34;130235;1270;109026;-79
2022/04/20 07:47:50;;;;;;;28.10;17.60;;;;;;;6.36;78.98;99598.67;130356;1271;108622;-78
2022/04/20 07:51:14;;;;;;;16.50;10.30;;;;;;;6.43;78.75;99594.71;130365;1267;108982;-81
2022/04/20 07:54:52;;;;;;;9.10;6.70;;;;;;;6.61;78.45;99597.07;130175;1270;108537;-79
2022/04/20 07:58:10;;;;;;;9.40;6.80;;;;;;;6.72;78.30;99595.34;130349;1270;108760;-77
2022/04/20 08:01:37;;;;;;;15.50;11.40;;;;;;;6.74;78.66;99599.55;130976;1267;108603;-82
2022/04/20 08:05:01;;;;;;;14.50;9.20;;;;;;;6.74;78.22;99594.30;130777;1269;108948;-82
2022/04/20 08:08:10;;;;;;;11.30;7.40;;;;;;;6.72;78.46;99596.42;130763;1267;109340;-82
2022/04/20 08:11:15;;;;;;;19.00;14.00;;;;;;;6.74;78.73;99591.25;130679;1268;108534;-79
2022/04/20 08:14:21;;;;;;;12.60;9.80;;;;;;;6.81;78.78;99594.47;130995;1267;108649;-77
2022/04/20 08:17:30;;;;;;;10.80;8.50;;;;;;;6.92;78.39;99593.45;130786;1268;108792;-78
2022/04/20 08:21:01;;;;;;;14.00;10.50;;;;;;;6.97;78.43;99594.07;130834;1268;108796;-80
2022/04/20 08:24:08;;;;;;;7.60;5.30;;;;;;;6.96;78.14;99589.05;130616;1267;108785;-80
2022/04/20 08:27:14;;;;;;;7.00;5.20;;;;;;;7.01;78.27;99584.67;130977;1267;108696;-78
2022/04/20 08:30:19;;;;;;;10.50;8.60;;;;;;;7.06;79.17;99581.80;131002;1267;108832;-79
2022/04/20 08:33:25;;;;;;;7.40;4.90;;;;;;;7.11;78.69;99571.67;130834;1268;108741;-79
2022/04/20 08:36:30;;;;;;;8.90;6.40;;;;;;;7.18;78.89;99578.91;130851;1268;108786;-82
2022/04/20 08:39:36;;;;;;;9.00;6.40;;;;;;;7.15;78.57;99580.16;130614;1268;108787;-83
2022/04/20 08:42:42;;;;;;;6.20;4.50;;;;;;;7.10;78.45;99583.65;130644;1267;108377;-85
2022/04/20 08:45:49;;;;;;;7.60;5.00;;;;;;;7.12;78.70;99586.44;130739;1268;108878;-82
2022/04/20 08:48:55;;;;;;;6.80;4.70;;;;;;;7.12;78.17;99584.65;130357;1270;108861;-82
2022/04/20 08:55:26;;;;;;;12.00;7.20;;;;;;;7.12;78.48;99576.75;130519;1268;106879;-78
2022/04/20 08:58:32;;;;;;;11.80;7.40;;;;;;;7.01;78.76;99573.84;130445;1268;108761;-78
2022/04/20 09:01:37;;;;;;;9.10;5.00;;;;;;;6.98;78.79;99573.73;130493;1267;108172;-83
2022/04/20 09:04:43;;;;;;;10.90;6.30;;;;;;;7.00;78.76;99580.09;130562;1268;108705;-81
2022/04/20 09:07:49;;;;;;;5.80;4.30;;;;;;;7.03;78.41;99579.66;130562;1267;108843;-80
2022/04/20 09:10:56;;;;;;;6.80;5.00;;;;;;;7.15;78.70;99583.71;130792;1267;108976;-80
2022/04/20 09:14:14;;;;;;;8.80;6.00;;;;;;;7.22;78.49;99581.02;130937;1270;108807;-84
2022/04/20 09:17:22;;;;;;;7.90;5.50;;;;;;;7.20;78.76;99580.59;130826;1267;108841;-82
2022/04/20 09:20:27;;;;;;;7.30;4.90;;;;;;;7.10;79.04;99582.70;130664;1268;109180;-80
2022/04/20 09:23:33;;;;;;;6.10;4.70;;;;;;;7.15;79.17;99580.70;130616;1268;108877;-84
2022/04/20 09:26:52;;;;;;;8.60;5.30;;;;;;;7.23;78.90;99585.21;131424;1268;108776;-84
2022/04/20 09:29:58;;;;;;;8.50;6.10;;;;;;;7.41;78.15;99581.86;130958;1267;108710;-80
2022/04/20 09:33:07;;;;;;;8.60;5.90;;;;;;;7.63;78.24;99580.98;130786;1268;108678;-81
2022/04/20 09:36:14;;;;;;;10.80;7.10;;;;;;;7.74;78.05;99576.39;130810;1268;109079;-85
2022/04/20 09:39:20;;;;;;;10.20;6.60;;;;;;;7.85;77.77;99566.73;130785;1268;108661;-81
2022/04/20 09:42:25;;;;;;;6.60;4.60;;;;;;;8.12;77.83;99563.55;130815;1268;107640;-86
2022/04/20 09:45:31;;;;;;;6.70;4.60;;;;;;;8.44;77.71;99565.45;130887;1268;107592;-82
2022/04/20 09:48:52;;;;;;;20.60;14.60;;;;;;;8.79;77.07;99575.92;130799;1269;108827;-82
2022/04/20 09:52:10;;;;;;;13.70;8.90;;;;;;;9.04;76.85;99581.51;131693;1268;108580;-82
2022/04/20 09:55:26;;;;;;;8.80;5.80;;;;;;;9.07;74.63;99584.41;130899;1268;108690;-82
2022/04/20 09:58:38;;;;;;;9.70;7.70;;;;;;;8.89;74.74;99583.73;130574;1269;108597;-82
2022/04/20 10:01:48;;;;;;;8.90;7.90;;;;;;;8.81;75.70;99578.57;130635;1268;107517;-85
2022/04/20 10:04:54;;;;;;;9.50;7.00;;;;;;;8.83;75.88;99568.37;130553;1270;108730;-83
2022/04/20 10:08:00;;;;;;;7.70;4.80;;;;;;;8.91;75.66;99566.91;130781;1269;109238;-85
2022/04/20 10:11:07;;;;;;;24.00;18.00;;;;;;;9.08;76.01;99571.31;130713;1268;109003;-85
2022/04/20 10:17:46;;;;;;;10.30;7.90;;;;;;;9.21;75.29;99580.20;130696;1267;109131;-81
2022/04/20 10:20:58;;;;;;;5.80;5.20;;;;;;;9.22;75.08;99582.25;130776;1267;107707;-81
2022/04/20 10:24:08;;;;;;;10.70;9.60;;;;;;;9.15;74.92;99591.04;131498;1268;108805;-84
2022/04/20 10:27:19;;;;;;;12.20;10.90;;;;;;;8.99;74.77;99592.25;132106;1268;107706;-81
2022/04/20 10:30:31;;;;;;;7.90;6.20;;;;;;;8.91;75.17;99597.41;131422;1268;108789;-82
2022/04/20 10:33:41;;;;;;;6.20;5.60;;;;;;;8.83;75.19;99605.27;131218;1268;108691;-81
2022/04/20 10:37:19;;;;;;;4.70;3.50;;;;;;;8.77;75.32;99614.09;130787;1268;108981;-78
2022/04/20 10:40:59;;;;;;;4.90;4.10;;;;;;;8.72;75.05;99613.39;130660;1268;108856;-79
2022/04/20 10:44:08;;;;;;;6.00;4.30;;;;;;;8.64;75.13;99610.75;130677;1268;109034;-78
2022/04/20 10:47:22;;;;;;;7.00;5.20;;;;;;;8.63;75.27;99612.27;130644;1268;108952;-83
2022/04/20 10:50:28;;;;;;;12.60;8.30;;;;;;;8.64;75.20;99615.20;130614;1268;108653;-79
2022/04/20 10:53:33;;;;;;;10.80;7.20;;;;;;;8.66;75.16;99609.50;130585;1267;108989;-80
2022/04/20 10:56:49;;;;;;;13.10;9.20;;;;;;;8.70;75.21;99608.09;130468;1268;108894;-77
2022/04/20 11:00:28;;;;;;;7.20;5.60;;;;;;;8.70;75.25;99609.29;130555;1268;107717;-79
2022/04/20 11:04:04;;;;;;;6.60;5.40;;;;;;;8.68;75.26;99604.02;130563;1269;108914;-80
2022/04/20 11:07:32;;;;;;;9.10;5.80;;;;;;;8.72;75.50;99602.21;130691;1268;109044;-84
2022/04/20 11:18:38;;;;;;;6.90;4.90;;;;;;;8.72;75.30;99601.09;130790;1267;108760;-82
2022/04/20 11:22:06;;;;;;;6.10;5.10;;;;;;;8.95;75.23;99593.44;130589;1268;108696;-83
2022/04/20 11:25:12;;;;;;;9.60;7.40;;;;;;;9.02;74.88;99598.75;130500;1268;108661;-80
2022/04/20 11:28:18;;;;;;;7.70;5.80;;;;;;;8.97;74.59;99596.80;130616;1268;108797;-89
2022/04/20 11:31:24;;;;;;;19.20;12.10;;;;;;;8.89;74.72;99601.48;130747;1268;110423;-82
2022/04/20 11:34:33;;;;;;;12.60;8.00;;;;;;;8.81;74.69;99603.91;130590;1268;108925;-84
2022/04/20 11:37:39;;;;;;;8.40;5.70;;;;;;;8.73;75.10;99604.61;130724;1268;107236;-84
2022/04/20 11:40:45;;;;;;;50.20;24.70;;;;;;;8.70;75.28;99604.52;130691;1268;108692;-86
2022/04/20 11:43:51;;;;;;;46.50;25.70;;;;;;;8.56;75.07;99601.30;130702;1268;107512;-88
2022/04/20 11:47:01;;;;;;;35.70;22.60;;;;;;;8.51;75.11;99597.04;130657;1268;108955;-90
2022/04/20 11:50:10;;;;;;;40.70;20.10;;;;;;;8.51;75.15;99595.98;130577;1268;108790;-87
2022/04/20 11:53:33;;;;;;;48.80;27.90;;;;;;;8.43;75.06;99595.15;130774;1268;108734;-85
2022/04/20 11:56:59;;;;;;;18.50;13.40;;;;;;;8.33;75.22;99598.27;130457;1268;108861;-80
2022/04/20 12:00:06;;;;;;;25.60;16.70;;;;;;;8.27;75.13;99598.72;130668;1268;107011;-89
2022/04/20 12:03:18;;;;;;;23.50;15.30;;;;;;;8.24;75.34;99602.86;130613;1268;108712;-82
2022/04/20 12:06:25;;;;;;;29.90;18.20;;;;;;;8.30;75.17;99607.10;130754;1267;108060;-83
2022/04/20 12:09:32;;;;;;;15.30;10.60;;;;;;;8.33;75.20;99604.52;130727;1268;108853;-82
2022/04/20 12:12:38;;;;;;;21.50;15.80;;;;;;;8.41;75.10;99609.89;130880;1268;108778;-84
2022/04/20 12:15:44;;;;;;;28.80;22.10;;;;;;;8.57;75.20;99604.05;130784;1268;108197;-82
2022/04/20 12:18:53;;;;;;;14.50;12.40;;;;;;;8.87;75.19;99605.06;130687;1268;106502;-81
2022/04/20 12:22:05;;;;;;;12.90;10.60;;;;;;;9.20;74.48;99602.73;130981;1268;108948;-87
2022/04/20 12:25:14;;;;;;;10.80;9.40;;;;;;;9.50;74.20;99602.42;130607;1268;108918;-85
2022/04/20 12:28:43;;;;;;;10.80;9.60;;;;;;;9.78;74.34;99596.06;130465;1268;107937;-81
2022/04/20 12:31:54;;;;;;;8.30;7.40;;;;;;;10.14;73.90;99596.50;130493;1268;107751;-82
2022/04/20 12:35:01;;;;;;;8.90;7.80;;;;;;;10.33;72.86;99592.13;130577;1268;108653;-82
2022/04/20 12:38:10;;;;;;;7.80;7.00;;;;;;;10.42;73.41;99586.88;130668;1268;108695;-82
2022/04/20 12:41:43;;;;;;;9.00;7.30;;;;;;;10.52;72.92;99590.91;130532;1268;108582;-86
2022/04/20 12:44:52;;;;;;;458.80;317.20;;;;;;;10.52;72.61;99594.02;130829;1268;108774;-83
2022/04/20 12:48:06;;;;;;;96.50;59.00;;;;;;;10.56;73.26;99598.59;131054;1268;108407;-83
2022/04/20 12:51:23;;;;;;;42.50;26.60;;;;;;;10.58;72.85;99598.64;130656;1268;109008;-81
2022/04/20 12:54:29;;;;;;;30.10;21.80;;;;;;;10.50;72.94;99597.17;130833;1268;108788;-82
2022/04/20 13:04:22;;;;;;;14.50;12.90;;;;;;;10.07;72.82;99608.09;130781;1268;107955;-81
2022/04/20 13:07:28;;;;;;;15.00;13.40;;;;;;;9.98;72.81;99604.98;131028;1268;108644;-79
2022/04/20 13:10:35;;;;;;;408.10;249.60;;;;;;;9.91;72.68;99608.05;131210;1268;108868;-83
2022/04/20 13:13:40;;;;;;;58.20;36.80;;;;;;;9.87;73.08;99607.17;131365;1268;108635;-80
2022/04/20 13:16:47;;;;;;;26.20;16.40;;;;;;;9.84;72.75;99602.01;131302;1268;109204;-81
2022/04/20 13:19:52;;;;;;;12.70;9.20;;;;;;;9.76;72.76;99601.63;131053;1268;108341;-82
2022/04/20 13:22:59;;;;;;;11.60;8.00;;;;;;;9.73;72.97;99605.89;130924;1268;108815;-81
2022/04/20 13:29:30;;;;;;;33.80;21.60;;;;;;;9.76;72.55;99609.95;131149;1268;107374;-80
2022/04/20 13:32:35;;;;;;;42.40;27.20;;;;;;;9.74;72.23;99614.58;131247;1268;108807;-80
2022/04/20 13:35:42;;;;;;;67.30;39.30;;;;;;;9.69;72.39;99616.94;130806;1268;108852;-80
2022/04/20 13:38:47;;;;;;;100.60;58.20;;;;;;;9.68;72.51;99614.23;130583;1268;109535;-90
2022/04/20 13:41:53;;;;;;;150.80;89.30;;;;;;;9.70;72.58;99622.85;130567;1268;107673;-81
2022/04/20 13:44:59;;;;;;;36.50;25.00;;;;;;;9.66;72.49;99628.41;130583;1268;108702;-80
2022/04/20 13:48:05;;;;;;;54.40;36.60;;;;;;;9.59;72.23;99628.66;130478;1268;109049;-79
2022/04/20 13:51:11;;;;;;;28.60;22.00;;;;;;;9.51;72.31;99633.96;130645;1268;108991;-82
2022/04/20 13:54:16;;;;;;;14.30;11.70;;;;;;;9.39;72.50;99636.35;130467;1268;108575;-80
2022/04/20 13:57:22;;;;;;;11.30;8.50;;;;;;;9.36;72.46;99641.99;130742;1267;108780;-79
2022/04/20 14:00:29;;;;;;;11.20;8.70;;;;;;;9.39;72.56;99640.24;130424;1268;108888;-78
2022/04/20 14:03:35;;;;;;;15.40;13.60;;;;;;;9.42;72.51;99641.39;130437;1267;108522;-79
2022/04/20 14:06:41;;;;;;;12.30;10.20;;;;;;;9.48;72.33;99637.27;130522;1268;109530;-79
2022/04/20 14:09:46;;;;;;;20.20;16.90;;;;;;;9.49;72.33;99636.39;130698;1267;108667;-83
2022/04/20 14:12:52;;;;;;;15.30;13.30;;;;;;;9.51;72.24;99637.96;130918;1267;109071;-89
2022/04/20 14:15:59;;;;;;;20.80;15.00;;;;;;;9.46;71.97;99644.33;131188;1268;108192;-84
2022/04/20 14:19:04;;;;;;;90.10;60.20;;;;;;;9.25;72.24;99647.41;131272;1268;108828;-87
2022/04/20 14:22:12;;;;;;;111.60;68.90;;;;;;;9.20;72.49;99647.02;130669;1267;108636;-83
2022/04/20 14:32:13;;;;;;;76.80;38.10;;;;;;;8.92;72.57;99660.30;130562;1268;108726;-80
2022/04/20 14:35:19;;;;;;;34.50;19.80;;;;;;;8.90;72.82;99665.78;130663;1268;108713;-78
2022/04/20 14:38:25;;;;;;;49.70;26.70;;;;;;;8.89;72.74;99673.67;130575;1267;109667;-79
2022/04/20 14:41:31;;;;;;;27.30;16.80;;;;;;;8.91;72.76;99675.40;130561;1268;108726;-83
2022/04/20 14:44:37;;;;;;;29.00;20.90;;;;;;;8.96;72.79;99675.23;130706;1267;108722;-84
2022/04/20 14:47:43;;;;;;;26.70;17.90;;;;;;;8.97;72.81;99679.98;130627;1267;108780;-82
2022/04/20 14:50:50;;;;;;;16.30;11.20;;;;;;;8.90;72.88;99685.63;130667;1267;108690;-81
2022/04/20 14:53:57;;;;;;;17.20;12.20;;;;;;;8.80;73.01;99690.15;130552;1268;108715;-79
2022/04/20 14:57:03;;;;;;;34.50;26.30;;;;;;;8.74;73.11;99698.40;130668;1268;107509;-79
2022/04/20 15:00:12;;;;;;;43.70;28.90;;;;;;;8.70;73.25;99698.66;130383;1267;108884;-82
2022/04/20 15:03:18;;;;;;;84.70;54.60;;;;;;;8.65;73.41;99699.13;130674;1267;108727;-78
2022/04/20 15:06:23;;;;;;;110.90;75.50;;;;;;;8.62;73.38;99698.39;130379;1267;108808;-81
2022/04/20 15:09:29;;;;;;;73.70;36.70;;;;;;;8.61;73.44;99700.91;130538;1267;107640;-78
2022/04/20 15:12:35;;;;;;;236.60;99.30;;;;;;;8.60;73.54;99701.44;130307;1268;107667;-81
2022/04/20 15:15:41;;;;;;;295.90;96.50;;;;;;;8.57;73.75;99703.02;130473;1268;108753;-79
2022/04/20 15:18:47;;;;;;;393.80;172.60;;;;;;;8.58;73.85;99704.83;130283;1268;108651;-79
2022/04/20 15:21:52;;;;;;;368.70;185.90;;;;;;;8.57;73.80;99705.45;130327;1268;108870;-80
2022/04/20 15:24:57;;;;;;;73.10;46.20;;;;;;;8.57;73.91;99702.79;131185;1268;108727;-80
2022/04/20 15:28:03;;;;;;;25.10;15.40;;;;;;;8.58;73.89;99707.61;130550;1267;108777;-82